sensor_id;sensor_type;location;lat;lon;timestamp;temperature;humidity
11242;DHT22;5678;52.370;9.006;2022-07-21T00:00:16;22.20;1.00
11242;DHT22;5678;52.370;9.006;2022-07-21T00:02:45;22.00;21.20
11242;DHT22;5678;52.370;9.006;2022-07-21T00:05:13;21.80;15.10
11242;DHT22;5678;52.370;9.006;2022-07-21T00:07:42;21.60;61.00
11242;DHT22;5678;52.370;9.006;2022-07-21T00:10:12;21.50;65.10
11242;DHT22;5678;52.370;9.006;2022-07-21T00:12:40;21.40;99.90
11242;DHT22;5678;52.370;9.006;2022-07-21T00:15:09;21.20;99.90
11242;DHT22;5678;52.370;9.006;2022-07-21T00:17:37;21.10;99.90
11242;DHT22;5678;52.370;9.006;2022-07-21T00:20:07;21.10;99.90
11242;DHT22;5678;52.370;9.006;2022-07-21T00:22:35;21.00;99.90
11242;DHT22;5678;52.370;9.006;2022-07-21T00:25:04;21.00;99.90
11242;DHT22;5678;52.370;9.006;2022-07-21T00:27:34;21.00;99.90
11242;DHT22;5678;52.370;9.006;2022-07-21T00:30:03;20.90;77.70
11242;DHT22;5678;52.370;9.006;2022-07-21T00:32:31;20.90;21.40
11242;DHT22;5678;52.370;9.006;2022-07-21T00:35:02;20.90;73.80
11242;DHT22;5678;52.370;9.006;2022-07-21T00:37:30;20.80;99.20
11242;DHT22;5678;52.370;9.006;2022-07-21T00:39:58;20.80;99.90
11242;DHT22;5678;52.370;9.006;2022-07-21T00:42:27;20.80;99.90
11242;DHT22;5678;52.370;9.006;2022-07-21T00:44:58;20.80;99.90
11242;DHT22;5678;52.370;9.006;2022-07-21T00:47:28;20.80;99.90
11242;DHT22;5678;52.370;9.006;2022-07-21T00:49:57;19.90;99.90
11242;DHT22;5678;52.370;9.006;2022-07-21T00:52:26;20.90;99.90
11242;DHT22;5678;52.370;9.006;2022-07-21T00:54:54;20.90;99.90
11242;DHT22;5678;52.370;9.006;2022-07-21T00:57:22;21.00;99.90
11242;DHT22;5678;52.370;9.006;2022-07-21T00:59:49;21.00;99.90
11242;DHT22;5678;52.370;9.006;2022-07-21T01:02:19;21.00;99.90
11242;DHT22;5678;52.370;9.006;2022-07-21T01:04:47;21.00;99.90
11242;DHT22;5678;52.370;9.006;2022-07-21T01:07:15;20.90;99.90
11242;DHT22;5678;52.370;9.006;2022-07-21T01:09:46;20.90;99.90
11242;DHT22;5678;52.370;9.006;2022-07-21T01:12:14;20.80;99.90
11242;DHT22;5678;52.370;9.006;2022-07-21T01:14:43;20.70;99.90
11242;DHT22;5678;52.370;9.006;2022-07-21T01:17:11;20.70;99.90
11242;DHT22;5678;52.370;9.006;2022-07-21T01:19:40;20.60;99.90
11242;DHT22;5678;52.370;9.006;2022-07-21T01:22:09;20.70;99.90
11242;DHT22;5678;52.370;9.006;2022-07-21T01:24:38;20.70;99.90
11242;DHT22;5678;52.370;9.006;2022-07-21T01:27:06;20.70;99.90
11242;DHT22;5678;52.370;9.006;2022-07-21T01:29:34;20.70;99.90
11242;DHT22;5678;52.370;9.006;2022-07-21T01:32:02;20.80;99.90
11242;DHT22;5678;52.370;9.006;2022-07-21T01:34:31;20.80;99.90
11242;DHT22;5678;52.370;9.006;2022-07-21T01:36:59;20.80;99.90
11242;DHT22;5678;52.370;9.006;2022-07-21T01:39:28;20.80;99.90
11242;DHT22;5678;52.370;9.006;2022-07-21T01:42:14;20.80;99.90
11242;DHT22;5678;52.370;9.006;2022-07-21T01:44:42;20.90;99.90
11242;DHT22;5678;52.370;9.006;2022-07-21T01:47:10;20.80;99.90
11242;DHT22;5678;52.370;9.006;2022-07-21T01:49:38;20.80;99.90
11242;DHT22;5678;52.370;9.006;2022-07-21T01:52:06;20.80;99.90
11242;DHT22;5678;52.370;9.006;2022-07-21T01:54:35;20.80;99.90
11242;DHT22;5678;52.370;9.006;2022-07-21T01:57:03;20.80;99.90
11242;DHT22;5678;52.370;9.006;2022-07-21T01:59:31;20.80;99.90
11242;DHT22;5678;52.370;9.006;2022-07-21T02:01:59;20.80;99.90
11242;DHT22;5678;52.370;9.006;2022-07-21T02:04:27;20.80;99.90
11242;DHT22;5678;52.370;9.006;2022-07-21T02:06:55;20.70;99.90
11242;DHT22;5678;52.370;9.006;2022-07-21T02:09:23;20.80;99.90
11242;DHT22;5678;52.370;9.006;2022-07-21T02:11:53;20.70;99.90
11242;DHT22;5678;52.370;9.006;2022-07-21T02:14:21;20.70;99.90
11242;DHT22;5678;52.370;9.006;2022-07-21T02:16:49;20.60;99.90
11242;DHT22;5678;52.370;9.006;2022-07-21T02:19:17;20.50;99.90
11242;DHT22;5678;52.370;9.006;2022-07-21T02:21:45;20.40;99.90
11242;DHT22;5678;52.370;9.006;2022-07-21T02:24:13;20.20;99.90
11242;DHT22;5678;52.370;9.006;2022-07-21T02:26:41;20.20;99.90
11242;DHT22;5678;52.370;9.006;2022-07-21T02:29:10;20.10;99.90
11242;DHT22;5678;52.370;9.006;2022-07-21T02:31:38;20.10;99.90
11242;DHT22;5678;52.370;9.006;2022-07-21T02:34:06;20.10;99.90
11242;DHT22;5678;52.370;9.006;2022-07-21T02:36:34;20.10;99.90
11242;DHT22;5678;52.370;9.006;2022-07-21T02:39:02;20.00;99.90
11242;DHT22;5678;52.370;9.006;2022-07-21T02:41:31;20.00;99.90
11242;DHT22;5678;52.370;9.006;2022-07-21T02:43:59;20.00;99.90
11242;DHT22;5678;52.370;9.006;2022-07-21T02:46:28;19.90;99.90
11242;DHT22;5678;52.370;9.006;2022-07-21T02:48:56;19.80;99.90
11242;DHT22;5678;52.370;9.006;2022-07-21T02:51:24;19.80;99.90
11242;DHT22;5678;52.370;9.006;2022-07-21T02:53:52;19.60;99.90
11242;DHT22;5678;52.370;9.006;2022-07-21T02:56:20;19.40;99.90
11242;DHT22;5678;52.370;9.006;2022-07-21T02:58:48;19.30;99.90
11242;DHT22;5678;52.370;9.006;2022-07-21T03:01:17;19.20;99.90
11242;DHT22;5678;52.370;9.006;2022-07-21T03:03:47;19.10;99.90
11242;DHT22;5678;52.370;9.006;2022-07-21T03:06:15;19.20;99.90
11242;DHT22;5678;52.370;9.006;2022-07-21T03:08:43;18.40;99.90
11242;DHT22;5678;52.370;9.006;2022-07-21T03:11:11;19.20;99.90
11242;DHT22;5678;52.370;9.006;2022-07-21T03:13:39;19.10;99.90
11242;DHT22;5678;52.370;9.006;2022-07-21T03:16:07;19.00;99.90
11242;DHT22;5678;52.370;9.006;2022-07-21T03:18:35;19.00;99.90
11242;DHT22;5678;52.370;9.006;2022-07-21T03:21:05;19.00;99.90
11242;DHT22;5678;52.370;9.006;2022-07-21T03:23:32;19.00;99.90
11242;DHT22;5678;52.370;9.006;2022-07-21T03:26:00;18.90;99.90
11242;DHT22;5678;52.370;9.006;2022-07-21T03:28:28;18.90;99.90
11242;DHT22;5678;52.370;9.006;2022-07-21T03:30:57;18.90;99.90
11242;DHT22;5678;52.370;9.006;2022-07-21T03:33:25;18.90;99.90
11242;DHT22;5678;52.370;9.006;2022-07-21T03:35:52;19.00;99.90
11242;DHT22;5678;52.370;9.006;2022-07-21T03:38:22;19.00;99.90
11242;DHT22;5678;52.370;9.006;2022-07-21T03:40:50;19.10;99.90
11242;DHT22;5678;52.370;9.006;2022-07-21T03:43:18;19.00;99.90
11242;DHT22;5678;52.370;9.006;2022-07-21T03:45:47;19.00;99.90
11242;DHT22;5678;52.370;9.006;2022-07-21T03:48:15;19.00;99.90
11242;DHT22;5678;52.370;9.006;2022-07-21T03:50:43;19.00;99.90
11242;DHT22;5678;52.370;9.006;2022-07-21T03:53:11;19.00;99.90
11242;DHT22;5678;52.370;9.006;2022-07-21T03:55:40;19.00;99.90
11242;DHT22;5678;52.370;9.006;2022-07-21T03:58:08;19.00;99.90
11242;DHT22;5678;52.370;9.006;2022-07-21T04:00:38;19.00;99.90
11242;DHT22;5678;52.370;9.006;2022-07-21T04:03:07;19.00;99.90
11242;DHT22;5678;52.370;9.006;2022-07-21T04:05:36;19.00;99.90
11242;DHT22;5678;52.370;9.006;2022-07-21T04:08:05;18.90;99.90
11242;DHT22;5678;52.370;9.006;2022-07-21T04:10:34;19.00;99.90
11242;DHT22;5678;52.370;9.006;2022-07-21T04:13:05;19.00;99.90
11242;DHT22;5678;52.370;9.006;2022-07-21T04:15:34;18.90;99.90
11242;DHT22;5678;52.370;9.006;2022-07-21T04:18:02;18.80;99.90
11242;DHT22;5678;52.370;9.006;2022-07-21T04:20:30;18.80;99.90
11242;DHT22;5678;52.370;9.006;2022-07-21T04:22:59;18.80;99.90
11242;DHT22;5678;52.370;9.006;2022-07-21T04:25:27;18.80;99.90
11242;DHT22;5678;52.370;9.006;2022-07-21T04:27:57;18.80;99.90
11242;DHT22;5678;52.370;9.006;2022-07-21T04:30:26;18.80;99.90
11242;DHT22;5678;52.370;9.006;2022-07-21T04:32:54;18.80;99.90
11242;DHT22;5678;52.370;9.006;2022-07-21T04:35:23;18.80;99.90
11242;DHT22;5678;52.370;9.006;2022-07-21T04:37:51;18.70;99.90
11242;DHT22;5678;52.370;9.006;2022-07-21T04:40:19;18.70;99.90
11242;DHT22;5678;52.370;9.006;2022-07-21T04:42:47;18.80;99.90
11242;DHT22;5678;52.370;9.006;2022-07-21T04:45:16;18.90;99.90
11242;DHT22;5678;52.370;9.006;2022-07-21T04:47:48;19.00;99.90
11242;DHT22;5678;52.370;9.006;2022-07-21T04:50:18;19.00;99.90
11242;DHT22;5678;52.370;9.006;2022-07-21T04:52:46;19.20;99.90
11242;DHT22;5678;52.370;9.006;2022-07-21T04:55:15;19.30;99.90
11242;DHT22;5678;52.370;9.006;2022-07-21T04:57:45;19.40;99.90
11242;DHT22;5678;52.370;9.006;2022-07-21T05:00:15;19.40;99.90
11242;DHT22;5678;52.370;9.006;2022-07-21T05:02:44;19.40;99.90
11242;DHT22;5678;52.370;9.006;2022-07-21T05:05:14;19.40;99.90
11242;DHT22;5678;52.370;9.006;2022-07-21T05:07:42;19.40;99.90
11242;DHT22;5678;52.370;9.006;2022-07-21T05:10:13;19.40;99.90
11242;DHT22;5678;52.370;9.006;2022-07-21T05:12:42;19.50;99.90
11242;DHT22;5678;52.370;9.006;2022-07-21T05:15:11;19.40;99.90
11242;DHT22;5678;52.370;9.006;2022-07-21T05:17:40;19.40;99.90
11242;DHT22;5678;52.370;9.006;2022-07-21T05:20:08;19.50;99.90
11242;DHT22;5678;52.370;9.006;2022-07-21T05:22:39;19.50;99.90
11242;DHT22;5678;52.370;9.006;2022-07-21T05:25:08;19.50;99.90
11242;DHT22;5678;52.370;9.006;2022-07-21T05:27:36;19.50;99.90
11242;DHT22;5678;52.370;9.006;2022-07-21T05:30:04;19.50;99.90
11242;DHT22;5678;52.370;9.006;2022-07-21T05:32:33;19.50;99.90
11242;DHT22;5678;52.370;9.006;2022-07-21T05:35:02;19.50;99.90
11242;DHT22;5678;52.370;9.006;2022-07-21T05:37:35;19.50;99.90
11242;DHT22;5678;52.370;9.006;2022-07-21T05:40:05;19.50;99.90
11242;DHT22;5678;52.370;9.006;2022-07-21T05:42:33;19.50;99.90
11242;DHT22;5678;52.370;9.006;2022-07-21T05:45:02;19.50;99.90
11242;DHT22;5678;52.370;9.006;2022-07-21T05:47:30;19.50;99.90
11242;DHT22;5678;52.370;9.006;2022-07-21T05:49:58;19.50;99.90
11242;DHT22;5678;52.370;9.006;2022-07-21T05:52:26;19.30;99.90
11242;DHT22;5678;52.370;9.006;2022-07-21T05:54:54;19.40;99.90
11242;DHT22;5678;52.370;9.006;2022-07-21T05:57:24;19.20;99.90
11242;DHT22;5678;52.370;9.006;2022-07-21T05:59:52;19.20;99.90
11242;DHT22;5678;52.370;9.006;2022-07-21T06:02:20;19.20;99.90
11242;DHT22;5678;52.370;9.006;2022-07-21T06:04:48;19.20;99.90
11242;DHT22;5678;52.370;9.006;2022-07-21T06:07:16;19.20;99.90
11242;DHT22;5678;52.370;9.006;2022-07-21T06:09:44;19.20;99.90
11242;DHT22;5678;52.370;9.006;2022-07-21T06:12:12;19.30;99.90
11242;DHT22;5678;52.370;9.006;2022-07-21T06:14:41;19.40;99.90
11242;DHT22;5678;52.370;9.006;2022-07-21T06:17:09;18.40;99.90
11242;DHT22;5678;52.370;9.006;2022-07-21T06:19:37;19.60;99.90
11242;DHT22;5678;52.370;9.006;2022-07-21T06:22:05;19.70;99.90
11242;DHT22;5678;52.370;9.006;2022-07-21T06:24:33;19.90;99.90
11242;DHT22;5678;52.370;9.006;2022-07-21T06:27:01;20.00;99.90
11242;DHT22;5678;52.370;9.006;2022-07-21T06:29:32;20.20;99.90
11242;DHT22;5678;52.370;9.006;2022-07-21T06:32:01;20.30;99.90
11242;DHT22;5678;52.370;9.006;2022-07-21T06:34:29;20.40;99.90
11242;DHT22;5678;52.370;9.006;2022-07-21T06:36:57;20.40;99.90
11242;DHT22;5678;52.370;9.006;2022-07-21T06:39:25;20.60;99.90
11242;DHT22;5678;52.370;9.006;2022-07-21T06:41:53;20.50;99.90
11242;DHT22;5678;52.370;9.006;2022-07-21T06:44:20;20.50;99.90
11242;DHT22;5678;52.370;9.006;2022-07-21T06:46:52;20.50;99.90
11242;DHT22;5678;52.370;9.006;2022-07-21T06:49:21;20.50;99.90
11242;DHT22;5678;52.370;9.006;2022-07-21T06:51:49;20.50;99.90
11242;DHT22;5678;52.370;9.006;2022-07-21T06:54:17;20.60;99.90
11242;DHT22;5678;52.370;9.006;2022-07-21T06:56:45;20.70;99.90
11242;DHT22;5678;52.370;9.006;2022-07-21T06:59:13;20.60;99.90
11242;DHT22;5678;52.370;9.006;2022-07-21T07:01:41;20.50;99.90
11242;DHT22;5678;52.370;9.006;2022-07-21T07:04:10;20.60;99.90
11242;DHT22;5678;52.370;9.006;2022-07-21T07:06:41;20.60;99.90
11242;DHT22;5678;52.370;9.006;2022-07-21T07:09:09;20.40;99.90
11242;DHT22;5678;52.370;9.006;2022-07-21T07:11:36;20.50;99.90
11242;DHT22;5678;52.370;9.006;2022-07-21T07:14:06;20.30;99.90
11242;DHT22;5678;52.370;9.006;2022-07-21T07:16:44;20.40;99.90
11242;DHT22;5678;52.370;9.006;2022-07-21T07:19:12;20.30;99.90
11242;DHT22;5678;52.370;9.006;2022-07-21T07:21:41;20.30;99.90
11242;DHT22;5678;52.370;9.006;2022-07-21T07:24:09;20.00;99.90
11242;DHT22;5678;52.370;9.006;2022-07-21T07:26:37;20.00;99.90
11242;DHT22;5678;52.370;9.006;2022-07-21T07:29:05;19.80;99.90
11242;DHT22;5678;52.370;9.006;2022-07-21T07:31:33;19.80;99.90
11242;DHT22;5678;52.370;9.006;2022-07-21T07:34:02;19.80;99.90
11242;DHT22;5678;52.370;9.006;2022-07-21T07:36:30;19.80;99.90
11242;DHT22;5678;52.370;9.006;2022-07-21T07:38:59;19.90;99.90
11242;DHT22;5678;52.370;9.006;2022-07-21T07:41:28;19.90;99.90
11242;DHT22;5678;52.370;9.006;2022-07-21T07:43:58;20.10;99.90
11242;DHT22;5678;52.370;9.006;2022-07-21T07:46:27;20.20;99.90
11242;DHT22;5678;52.370;9.006;2022-07-21T07:48:55;20.30;99.90
11242;DHT22;5678;52.370;9.006;2022-07-21T07:51:29;20.40;99.90
11242;DHT22;5678;52.370;9.006;2022-07-21T07:53:58;20.60;99.90
11242;DHT22;5678;52.370;9.006;2022-07-21T07:56:30;20.70;99.90
11242;DHT22;5678;52.370;9.006;2022-07-21T07:58:58;20.90;99.90
11242;DHT22;5678;52.370;9.006;2022-07-21T08:01:26;21.00;99.90
11242;DHT22;5678;52.370;9.006;2022-07-21T08:03:54;21.10;99.90
11242;DHT22;5678;52.370;9.006;2022-07-21T08:06:23;21.30;99.90
11242;DHT22;5678;52.370;9.006;2022-07-21T08:08:51;21.50;99.90
11242;DHT22;5678;52.370;9.006;2022-07-21T08:11:20;21.60;99.90
11242;DHT22;5678;52.370;9.006;2022-07-21T08:13:48;21.60;79.70
11242;DHT22;5678;52.370;9.006;2022-07-21T08:16:17;21.60;85.10
11242;DHT22;5678;52.370;9.006;2022-07-21T08:18:45;21.50;46.70
11242;DHT22;5678;52.370;9.006;2022-07-21T08:21:15;21.50;20.00
11242;DHT22;5678;52.370;9.006;2022-07-21T08:23:43;21.30;61.70
11242;DHT22;5678;52.370;9.006;2022-07-21T08:26:11;21.70;35.60
11242;DHT22;5678;52.370;9.006;2022-07-21T08:28:40;21.20;48.10
11242;DHT22;5678;52.370;9.006;2022-07-21T08:31:08;21.00;59.00
11242;DHT22;5678;52.370;9.006;2022-07-21T08:33:36;21.00;99.90
11242;DHT22;5678;52.370;9.006;2022-07-21T08:36:04;21.00;99.90
11242;DHT22;5678;52.370;9.006;2022-07-21T08:38:32;21.00;99.90
11242;DHT22;5678;52.370;9.006;2022-07-21T08:41:01;21.00;99.90
11242;DHT22;5678;52.370;9.006;2022-07-21T08:43:29;21.10;99.90
11242;DHT22;5678;52.370;9.006;2022-07-21T08:45:59;21.20;99.90
11242;DHT22;5678;52.370;9.006;2022-07-21T08:48:28;21.50;99.90
11242;DHT22;5678;52.370;9.006;2022-07-21T08:50:57;21.70;99.90
11242;DHT22;5678;52.370;9.006;2022-07-21T08:53:25;22.00;30.10
11242;DHT22;5678;52.370;9.006;2022-07-21T08:55:55;22.40;79.30
11242;DHT22;5678;52.370;9.006;2022-07-21T08:58:23;22.80;1.00
11242;DHT22;5678;52.370;9.006;2022-07-21T09:00:51;23.00;1.00
11242;DHT22;5678;52.370;9.006;2022-07-21T09:03:23;23.30;1.00
11242;DHT22;5678;52.370;9.006;2022-07-21T09:06:03;23.60;1.00
11242;DHT22;5678;52.370;9.006;2022-07-21T09:08:35;23.90;1.00
11242;DHT22;5678;52.370;9.006;2022-07-21T09:11:15;24.20;1.00
11242;DHT22;5678;52.370;9.006;2022-07-21T09:13:44;24.80;1.00
11242;DHT22;5678;52.370;9.006;2022-07-21T09:16:13;25.50;1.00
11242;DHT22;5678;52.370;9.006;2022-07-21T09:18:51;26.00;99.90
11242;DHT22;5678;52.370;9.006;2022-07-21T09:21:20;26.00;28.00
11242;DHT22;5678;52.370;9.006;2022-07-21T09:23:48;26.10;99.90
11242;DHT22;5678;52.370;9.006;2022-07-21T09:26:16;26.00;1.00
11242;DHT22;5678;52.370;9.006;2022-07-21T09:28:44;25.80;1.00
11242;DHT22;5678;52.370;9.006;2022-07-21T09:31:12;25.70;1.00
11242;DHT22;5678;52.370;9.006;2022-07-21T09:33:42;25.70;1.00
11242;DHT22;5678;52.370;9.006;2022-07-21T09:36:13;25.80;99.90
11242;DHT22;5678;52.370;9.006;2022-07-21T09:38:43;25.80;99.90
11242;DHT22;5678;52.370;9.006;2022-07-21T09:41:13;25.80;1.00
11242;DHT22;5678;52.370;9.006;2022-07-21T09:43:43;25.80;7.40
11242;DHT22;5678;52.370;9.006;2022-07-21T09:46:14;25.90;96.70
11242;DHT22;5678;52.370;9.006;2022-07-21T09:48:44;26.00;99.90
11242;DHT22;5678;52.370;9.006;2022-07-21T09:51:36;26.00;1.00
11242;DHT22;5678;52.370;9.006;2022-07-21T09:54:08;26.10;1.00
11242;DHT22;5678;52.370;9.006;2022-07-21T09:56:38;26.30;1.00
11242;DHT22;5678;52.370;9.006;2022-07-21T09:59:07;26.40;1.00
11242;DHT22;5678;52.370;9.006;2022-07-21T10:01:36;26.40;99.90
11242;DHT22;5678;52.370;9.006;2022-07-21T10:04:05;26.40;99.90
11242;DHT22;5678;52.370;9.006;2022-07-21T10:06:38;26.30;99.90
11242;DHT22;5678;52.370;9.006;2022-07-21T10:09:09;26.30;99.90
11242;DHT22;5678;52.370;9.006;2022-07-21T10:11:40;26.20;99.90
11242;DHT22;5678;52.370;9.006;2022-07-21T10:14:09;26.10;99.90
11242;DHT22;5678;52.370;9.006;2022-07-21T10:16:38;26.00;99.90
11242;DHT22;5678;52.370;9.006;2022-07-21T10:19:19;25.90;99.90
11242;DHT22;5678;52.370;9.006;2022-07-21T10:21:55;25.80;99.90
11242;DHT22;5678;52.370;9.006;2022-07-21T10:24:28;25.80;99.90
11242;DHT22;5678;52.370;9.006;2022-07-21T10:27:04;25.60;99.90
11242;DHT22;5678;52.370;9.006;2022-07-21T10:30:00;25.40;99.90
11242;DHT22;5678;52.370;9.006;2022-07-21T10:32:32;25.70;99.90
11242;DHT22;5678;52.370;9.006;2022-07-21T10:35:24;26.20;99.90
11242;DHT22;5678;52.370;9.006;2022-07-21T10:37:52;26.70;99.90
11242;DHT22;5678;52.370;9.006;2022-07-21T10:40:36;27.00;99.90
11242;DHT22;5678;52.370;9.006;2022-07-21T10:43:42;27.10;99.90
11242;DHT22;5678;52.370;9.006;2022-07-21T10:46:35;27.00;99.90
11242;DHT22;5678;52.370;9.006;2022-07-21T10:49:04;26.70;99.90
11242;DHT22;5678;52.370;9.006;2022-07-21T10:51:34;26.50;99.90
11242;DHT22;5678;52.370;9.006;2022-07-21T10:54:23;26.60;99.90
11242;DHT22;5678;52.370;9.006;2022-07-21T10:57:24;26.80;99.90
11242;DHT22;5678;52.370;9.006;2022-07-21T11:00:24;26.80;99.90
11242;DHT22;5678;52.370;9.006;2022-07-21T11:02:56;26.70;99.90
11242;DHT22;5678;52.370;9.006;2022-07-21T11:05:26;26.50;99.90
11242;DHT22;5678;52.370;9.006;2022-07-21T11:08:17;26.40;99.90
11242;DHT22;5678;52.370;9.006;2022-07-21T11:10:50;26.30;99.90
11242;DHT22;5678;52.370;9.006;2022-07-21T11:13:20;26.10;99.90
11242;DHT22;5678;52.370;9.006;2022-07-21T11:15:57;26.20;99.90
11242;DHT22;5678;52.370;9.006;2022-07-21T11:18:27;26.70;99.90
11242;DHT22;5678;52.370;9.006;2022-07-21T11:21:12;27.50;99.90
11242;DHT22;5678;52.370;9.006;2022-07-21T11:23:44;28.10;99.90
11242;DHT22;5678;52.370;9.006;2022-07-21T11:26:16;28.60;99.90
11242;DHT22;5678;52.370;9.006;2022-07-21T11:28:45;29.10;99.90
11242;DHT22;5678;52.370;9.006;2022-07-21T11:31:16;29.20;99.90
11242;DHT22;5678;52.370;9.006;2022-07-21T11:33:46;29.20;99.90
11242;DHT22;5678;52.370;9.006;2022-07-21T11:36:25;29.10;99.90
11242;DHT22;5678;52.370;9.006;2022-07-21T11:38:58;29.00;99.90
11242;DHT22;5678;52.370;9.006;2022-07-21T11:41:27;28.90;99.90
11242;DHT22;5678;52.370;9.006;2022-07-21T11:43:55;28.80;99.90
11242;DHT22;5678;52.370;9.006;2022-07-21T11:46:23;28.80;99.90
11242;DHT22;5678;52.370;9.006;2022-07-21T11:49:05;28.50;99.90
11242;DHT22;5678;52.370;9.006;2022-07-21T11:51:33;28.20;99.90
11242;DHT22;5678;52.370;9.006;2022-07-21T11:54:01;27.50;99.90
11242;DHT22;5678;52.370;9.006;2022-07-21T11:56:38;26.10;99.90
11242;DHT22;5678;52.370;9.006;2022-07-21T11:59:10;24.60;99.90
11242;DHT22;5678;52.370;9.006;2022-07-21T12:01:57;23.50;99.90
11242;DHT22;5678;52.370;9.006;2022-07-21T12:04:37;22.90;99.90
11242;DHT22;5678;52.370;9.006;2022-07-21T12:07:10;22.60;99.90
11242;DHT22;5678;52.370;9.006;2022-07-21T12:09:40;22.50;99.90
11242;DHT22;5678;52.370;9.006;2022-07-21T12:12:15;22.70;99.90
11242;DHT22;5678;52.370;9.006;2022-07-21T12:14:45;23.20;99.90
11242;DHT22;5678;52.370;9.006;2022-07-21T12:17:14;23.80;99.90
11242;DHT22;5678;52.370;9.006;2022-07-21T12:19:42;24.40;99.90
11242;DHT22;5678;52.370;9.006;2022-07-21T12:22:11;25.10;99.90
11242;DHT22;5678;52.370;9.006;2022-07-21T12:24:56;25.50;99.90
11242;DHT22;5678;52.370;9.006;2022-07-21T12:27:27;25.90;99.90
11242;DHT22;5678;52.370;9.006;2022-07-21T12:29:55;26.10;99.90
11242;DHT22;5678;52.370;9.006;2022-07-21T12:32:41;26.10;99.90
11242;DHT22;5678;52.370;9.006;2022-07-21T12:35:24;25.90;99.90
11242;DHT22;5678;52.370;9.006;2022-07-21T12:38:09;25.70;99.90
11242;DHT22;5678;52.370;9.006;2022-07-21T12:40:39;25.40;99.90
11242;DHT22;5678;52.370;9.006;2022-07-21T12:43:29;25.20;99.90
11242;DHT22;5678;52.370;9.006;2022-07-21T12:46:00;24.50;99.90
11242;DHT22;5678;52.370;9.006;2022-07-21T12:48:29;24.00;99.90
11242;DHT22;5678;52.370;9.006;2022-07-21T12:51:07;23.40;99.90
11242;DHT22;5678;52.370;9.006;2022-07-21T12:53:40;23.10;99.90
11242;DHT22;5678;52.370;9.006;2022-07-21T12:56:09;22.80;99.90
11242;DHT22;5678;52.370;9.006;2022-07-21T12:58:39;22.60;99.90
11242;DHT22;5678;52.370;9.006;2022-07-21T13:01:07;22.40;99.90
11242;DHT22;5678;52.370;9.006;2022-07-21T13:03:35;22.30;99.90
11242;DHT22;5678;52.370;9.006;2022-07-21T13:06:05;22.30;99.90
11242;DHT22;5678;52.370;9.006;2022-07-21T13:08:36;22.30;99.90
11242;DHT22;5678;52.370;9.006;2022-07-21T13:11:05;22.20;99.90
11242;DHT22;5678;52.370;9.006;2022-07-21T13:13:33;22.30;99.90
11242;DHT22;5678;52.370;9.006;2022-07-21T13:16:03;22.30;99.90
11242;DHT22;5678;52.370;9.006;2022-07-21T13:18:31;22.40;99.90
11242;DHT22;5678;52.370;9.006;2022-07-21T13:21:01;22.50;99.90
11242;DHT22;5678;52.370;9.006;2022-07-21T13:23:29;22.60;99.90
11242;DHT22;5678;52.370;9.006;2022-07-21T13:25:57;22.70;99.90
11242;DHT22;5678;52.370;9.006;2022-07-21T13:28:31;22.80;99.90
11242;DHT22;5678;52.370;9.006;2022-07-21T13:31:04;22.90;99.90
11242;DHT22;5678;52.370;9.006;2022-07-21T13:33:34;23.00;99.90
11242;DHT22;5678;52.370;9.006;2022-07-21T13:36:03;23.10;99.90
11242;DHT22;5678;52.370;9.006;2022-07-21T13:38:31;23.20;99.90
11242;DHT22;5678;52.370;9.006;2022-07-21T13:40:59;23.40;99.90
11242;DHT22;5678;52.370;9.006;2022-07-21T13:43:47;23.60;99.90
11242;DHT22;5678;52.370;9.006;2022-07-21T13:46:17;23.70;99.90
11242;DHT22;5678;52.370;9.006;2022-07-21T13:48:45;23.80;99.90
11242;DHT22;5678;52.370;9.006;2022-07-21T13:51:14;23.80;99.90
11242;DHT22;5678;52.370;9.006;2022-07-21T13:53:43;24.00;99.90
11242;DHT22;5678;52.370;9.006;2022-07-21T13:56:12;24.10;99.90
11242;DHT22;5678;52.370;9.006;2022-07-21T13:58:40;24.30;99.90
11242;DHT22;5678;52.370;9.006;2022-07-21T14:01:10;24.60;99.90
11242;DHT22;5678;52.370;9.006;2022-07-21T14:03:42;24.80;99.90
11242;DHT22;5678;52.370;9.006;2022-07-21T14:06:11;25.00;99.90
11242;DHT22;5678;52.370;9.006;2022-07-21T14:08:39;25.00;99.90
11242;DHT22;5678;52.370;9.006;2022-07-21T14:11:07;25.20;99.90
11242;DHT22;5678;52.370;9.006;2022-07-21T14:13:36;25.50;99.90
11242;DHT22;5678;52.370;9.006;2022-07-21T14:16:04;25.70;99.90
11242;DHT22;5678;52.370;9.006;2022-07-21T14:18:33;25.90;99.90
11242;DHT22;5678;52.370;9.006;2022-07-21T14:21:03;26.00;99.90
11242;DHT22;5678;52.370;9.006;2022-07-21T14:23:31;26.10;99.90
11242;DHT22;5678;52.370;9.006;2022-07-21T14:25:59;26.20;99.90
11242;DHT22;5678;52.370;9.006;2022-07-21T14:28:28;26.20;99.90
11242;DHT22;5678;52.370;9.006;2022-07-21T14:30:56;26.20;99.90
11242;DHT22;5678;52.370;9.006;2022-07-21T14:33:26;26.10;99.90
11242;DHT22;5678;52.370;9.006;2022-07-21T14:35:55;25.90;99.90
11242;DHT22;5678;52.370;9.006;2022-07-21T14:38:25;25.70;99.90
11242;DHT22;5678;52.370;9.006;2022-07-21T14:40:53;25.30;99.90
11242;DHT22;5678;52.370;9.006;2022-07-21T14:43:21;25.10;99.90
11242;DHT22;5678;52.370;9.006;2022-07-21T14:45:49;24.80;99.90
11242;DHT22;5678;52.370;9.006;2022-07-21T14:48:17;24.60;99.90
11242;DHT22;5678;52.370;9.006;2022-07-21T14:50:49;24.20;99.90
11242;DHT22;5678;52.370;9.006;2022-07-21T14:53:16;23.60;99.90
11242;DHT22;5678;52.370;9.006;2022-07-21T14:55:46;23.00;99.90
11242;DHT22;5678;52.370;9.006;2022-07-21T14:58:14;22.40;99.90
11242;DHT22;5678;52.370;9.006;2022-07-21T15:00:42;21.80;99.90
11242;DHT22;5678;52.370;9.006;2022-07-21T15:03:10;21.50;99.90
11242;DHT22;5678;52.370;9.006;2022-07-21T15:05:38;21.20;99.90
11242;DHT22;5678;52.370;9.006;2022-07-21T15:08:06;21.10;99.90
11242;DHT22;5678;52.370;9.006;2022-07-21T15:10:39;21.00;99.90
11242;DHT22;5678;52.370;9.006;2022-07-21T15:13:09;20.90;99.90
11242;DHT22;5678;52.370;9.006;2022-07-21T15:15:37;20.90;99.90
11242;DHT22;5678;52.370;9.006;2022-07-21T15:18:05;20.90;99.90
11242;DHT22;5678;52.370;9.006;2022-07-21T15:20:33;21.10;99.90
11242;DHT22;5678;52.370;9.006;2022-07-21T15:23:01;21.10;99.90
11242;DHT22;5678;52.370;9.006;2022-07-21T15:25:29;21.20;99.90
11242;DHT22;5678;52.370;9.006;2022-07-21T15:27:57;21.30;99.90
11242;DHT22;5678;52.370;9.006;2022-07-21T15:30:26;21.50;99.90
11242;DHT22;5678;52.370;9.006;2022-07-21T15:32:54;21.60;99.90
11242;DHT22;5678;52.370;9.006;2022-07-21T15:35:22;21.80;99.90
11242;DHT22;5678;52.370;9.006;2022-07-21T15:37:50;22.10;99.90
11242;DHT22;5678;52.370;9.006;2022-07-21T15:40:19;22.40;99.90
11242;DHT22;5678;52.370;9.006;2022-07-21T15:42:48;22.90;99.90
11242;DHT22;5678;52.370;9.006;2022-07-21T15:45:16;23.30;99.90
11242;DHT22;5678;52.370;9.006;2022-07-21T15:47:46;23.70;99.90
11242;DHT22;5678;52.370;9.006;2022-07-21T15:50:14;23.90;99.90
11242;DHT22;5678;52.370;9.006;2022-07-21T15:52:42;24.30;99.90
11242;DHT22;5678;52.370;9.006;2022-07-21T15:55:11;24.40;99.90
11242;DHT22;5678;52.370;9.006;2022-07-21T15:57:39;24.60;99.90
11242;DHT22;5678;52.370;9.006;2022-07-21T16:00:09;24.70;99.90
11242;DHT22;5678;52.370;9.006;2022-07-21T16:02:37;24.90;99.90
11242;DHT22;5678;52.370;9.006;2022-07-21T16:05:09;25.00;99.90